createdAt,value
2023-01-26T00:01:20.067Z,7.77
2023-01-26T00:03:47.305Z,7.43
2023-01-26T00:06:16.569Z,7.33
2023-01-26T00:08:48.198Z,7.33
2023-01-26T00:11:17.976Z,7.67
2023-01-26T00:13:45.087Z,7.73
2023-01-26T00:16:14.524Z,8.27
2023-01-26T00:18:42.495Z,8.40
2023-01-26T00:21:14.255Z,8.40
2023-01-26T00:23:41.877Z,7.87
2023-01-26T00:26:15.526Z,9.87
2023-01-26T00:28:42.530Z,8.90
2023-01-26T00:31:15.644Z,8.37
2023-01-26T00:33:42.609Z,8.30
2023-01-26T00:36:09.660Z,7.40
2023-01-26T00:38:36.864Z,6.70
2023-01-26T00:41:03.832Z,6.13
2023-01-26T00:43:30.890Z,5.97
2023-01-26T00:45:57.892Z,5.43
2023-01-26T00:48:25.094Z,6.17
2023-01-26T00:50:53.158Z,6.13
2023-01-26T00:53:20.160Z,6.00
2023-01-26T00:55:47.103Z,4.90
2023-01-26T00:58:14.218Z,5.00
2023-01-26T01:00:41.160Z,5.47
2023-01-26T01:03:08.319Z,5.70
2023-01-26T01:05:35.435Z,5.43
2023-01-26T01:08:03.508Z,5.40
2023-01-26T01:10:30.421Z,6.03
2023-01-26T01:12:57.399Z,5.70
2023-01-26T01:15:25.288Z,5.53
2023-01-26T01:17:52.529Z,5.13
2023-01-26T01:20:19.470Z,4.97
2023-01-26T01:22:46.728Z,4.47
2023-01-26T01:25:13.706Z,3.90
2023-01-26T01:27:40.679Z,3.67
2023-01-26T01:30:08.594Z,4.50
2023-01-26T01:32:36.285Z,4.90
2023-01-26T01:35:03.654Z,4.50
2023-01-26T01:37:30.918Z,4.40
2023-01-26T01:39:57.810Z,5.20
2023-01-26T01:42:25.860Z,5.37
2023-01-26T01:45:23.713Z,5.90
2023-01-26T01:47:50.676Z,6.60
2023-01-26T01:50:19.392Z,5.67
2023-01-26T01:52:46.600Z,4.83
2023-01-26T01:55:15.371Z,5.30
2023-01-26T01:57:53.414Z,5.90
2023-01-26T02:00:23.561Z,5.20
2023-01-26T02:03:11.880Z,4.83
2023-01-26T02:05:57.893Z,4.80
2023-01-26T02:08:33.606Z,5.80
2023-01-26T02:11:05.620Z,5.50
2023-01-26T02:13:34.767Z,6.07
2023-01-26T02:16:01.755Z,5.90
2023-01-26T02:18:28.991Z,5.60
2023-01-26T02:21:11.321Z,5.63
2023-01-26T02:23:43.710Z,6.80
2023-01-26T02:26:22.619Z,6.40
2023-01-26T02:28:50.228Z,7.10
2023-01-26T02:31:18.695Z,6.93
2023-01-26T02:33:46.053Z,7.27
2023-01-26T02:36:21.099Z,7.33
2023-01-26T02:39:16.975Z,7.93
2023-01-26T02:42:03.045Z,8.03
2023-01-26T02:44:31.153Z,7.90
2023-01-26T02:46:58.119Z,8.07
2023-01-26T02:49:43.684Z,7.50
2023-01-26T02:52:10.615Z,8.70
2023-01-26T02:54:56.201Z,9.17
2023-01-26T02:57:23.219Z,8.17
2023-01-26T02:59:50.111Z,8.40
2023-01-26T03:02:17.359Z,8.63
2023-01-26T03:04:44.285Z,9.37
2023-01-26T03:07:11.172Z,9.10
2023-01-26T03:09:38.117Z,8.83
2023-01-26T03:12:05.293Z,8.90
2023-01-26T03:14:32.246Z,9.27
2023-01-26T03:16:59.131Z,8.97
2023-01-26T03:19:44.680Z,9.27
2023-01-26T03:22:30.768Z,8.67
2023-01-26T03:25:16.358Z,10.57
2023-01-26T03:27:46.326Z,11.03
2023-01-26T03:30:16.058Z,11.23
2023-01-26T03:32:43.481Z,10.03
2023-01-26T03:35:15.348Z,11.10
2023-01-26T03:37:43.719Z,14.70
2023-01-26T03:40:30.786Z,10.40
2023-01-26T03:43:16.547Z,9.73
2023-01-26T03:46:02.139Z,10.77
2023-01-26T03:48:47.682Z,10.50
2023-01-26T03:51:33.068Z,10.20
2023-01-26T03:54:18.928Z,9.43
2023-01-26T03:56:46.096Z,9.03
2023-01-26T03:59:15.265Z,8.20
2023-01-26T04:02:03.236Z,8.03
2023-01-26T04:04:48.854Z,7.63
2023-01-26T04:07:34.274Z,8.37
2023-01-26T04:10:01.194Z,7.87
2023-01-26T04:12:28.166Z,7.83
2023-01-26T04:15:13.724Z,7.30
2023-01-26T04:17:59.136Z,9.20
2023-01-26T04:20:44.624Z,8.73
2023-01-26T04:23:20.555Z,9.30
2023-01-26T04:25:48.763Z,8.97
2023-01-26T04:28:15.778Z,8.90
2023-01-26T04:30:42.764Z,9.00
2023-01-26T04:33:10.233Z,9.60
2023-01-26T04:35:37.310Z,9.33
2023-01-26T04:38:04.215Z,9.10
2023-01-26T04:40:31.147Z,10.20
2023-01-26T04:42:58.080Z,10.20
2023-01-26T04:45:25.029Z,9.63
2023-01-26T04:47:51.979Z,9.90
2023-01-26T04:50:18.894Z,10.03
2023-01-26T04:52:45.867Z,10.00
2023-01-26T04:55:12.810Z,10.20
2023-01-26T04:57:39.756Z,10.40
2023-01-26T05:00:08.589Z,11.27
2023-01-26T05:02:35.614Z,9.50
2023-01-26T05:05:02.639Z,10.50
2023-01-26T05:07:29.539Z,10.07
2023-01-26T05:09:56.710Z,10.13
2023-01-26T05:12:36.255Z,11.37
2023-01-26T05:15:03.392Z,11.03
2023-01-26T05:17:30.321Z,11.03
2023-01-26T05:19:57.263Z,10.83
2023-01-26T05:22:24.223Z,10.73
2023-01-26T05:24:51.146Z,10.10
2023-01-26T05:27:23.877Z,10.47
2023-01-26T05:29:51.498Z,10.13
2023-01-26T05:32:18.975Z,10.60
2023-01-26T05:34:46.230Z,11.23
2023-01-26T05:37:14.999Z,10.20
2023-01-26T05:39:42.751Z,10.87
2023-01-26T05:42:11.643Z,11.20
2023-01-26T05:44:38.720Z,11.53
2023-01-26T05:47:05.779Z,11.13
2023-01-26T05:49:32.654Z,11.13
2023-01-26T05:51:59.715Z,11.47
2023-01-26T05:54:26.630Z,11.13
2023-01-26T05:56:53.557Z,9.80
2023-01-26T05:59:20.504Z,10.83
2023-01-26T06:01:47.470Z,9.33
2023-01-26T06:04:14.438Z,9.97
2023-01-26T06:06:41.336Z,11.13
2023-01-26T06:09:08.219Z,11.57
2023-01-26T06:11:35.348Z,13.43
2023-01-26T06:14:02.326Z,10.47
2023-01-26T06:16:29.737Z,10.47
2023-01-26T06:18:56.679Z,10.13
2023-01-26T06:21:23.638Z,9.97
2023-01-26T06:23:50.557Z,9.57
2023-01-26T06:26:17.555Z,10.47
2023-01-26T06:28:44.495Z,10.30
2023-01-26T06:31:11.885Z,11.60
2023-01-26T06:33:38.909Z,10.60
2023-01-26T06:36:10.088Z,14.70
2023-01-26T06:38:37.310Z,11.37
2023-01-26T06:41:06.565Z,16.67
2023-01-26T06:43:35.617Z,12.97
2023-01-26T06:46:05.016Z,12.23
2023-01-26T06:48:34.505Z,11.03
2023-01-26T06:51:16.543Z,10.70
2023-01-26T06:54:03.909Z,10.83
2023-01-26T06:56:35.593Z,10.20
2023-01-26T06:59:02.741Z,10.67
2023-01-26T07:01:34.825Z,11.17
2023-01-26T07:04:02.133Z,10.23
2023-01-26T07:06:29.050Z,10.93
2023-01-26T07:08:56.007Z,11.90
2023-01-26T07:11:23.923Z,9.80
2023-01-26T07:13:51.320Z,8.77
2023-01-26T07:16:18.991Z,12.13
2023-01-26T07:18:45.991Z,10.03
2023-01-26T07:21:18.924Z,10.33
2023-01-26T07:23:46.598Z,9.23
2023-01-26T07:26:14.210Z,9.83
2023-01-26T07:28:41.353Z,9.90
2023-01-26T07:31:09.729Z,9.70
2023-01-26T07:33:36.662Z,10.30
2023-01-26T07:36:04.210Z,9.80
2023-01-26T07:38:32.698Z,9.83
2023-01-26T07:41:04.053Z,12.50
2023-01-26T07:43:33.157Z,12.13
2023-01-26T07:46:00.275Z,11.57
2023-01-26T07:48:30.739Z,12.00
2023-01-26T07:50:59.949Z,11.40
2023-01-26T07:53:30.619Z,11.73
2023-01-26T07:56:16.236Z,12.50
2023-01-26T07:58:43.166Z,12.47
2023-01-26T08:01:13.164Z,11.73
2023-01-26T08:03:41.183Z,12.17
2023-01-26T08:06:11.804Z,11.60
2023-01-26T08:08:42.198Z,12.73
2023-01-26T08:11:10.534Z,13.30
2023-01-26T08:13:40.773Z,13.00
2023-01-26T08:16:11.909Z,12.57
2023-01-26T08:18:40.620Z,13.27
2023-01-26T08:21:08.125Z,13.93
2023-01-26T08:23:35.262Z,13.50
2023-01-26T08:26:04.525Z,14.00
2023-01-26T08:28:31.750Z,13.77
2023-01-26T08:31:11.466Z,14.60
2023-01-26T08:33:40.554Z,13.97
2023-01-26T08:36:11.557Z,13.67
2023-01-26T08:38:38.601Z,14.10
2023-01-26T08:41:06.463Z,13.93
2023-01-26T08:43:33.641Z,13.37
2023-01-26T08:46:01.040Z,14.67
2023-01-26T08:48:31.226Z,15.20
2023-01-26T08:51:01.789Z,14.80
2023-01-26T08:53:31.454Z,14.83
2023-01-26T08:56:01.691Z,14.47
2023-01-26T08:58:29.615Z,15.17
2023-01-26T09:00:58.104Z,15.13
2023-01-26T09:03:25.188Z,14.30
2023-01-26T09:05:52.102Z,14.57
2023-01-26T09:08:21.769Z,15.37
2023-01-26T09:10:48.779Z,14.80
2023-01-26T09:13:15.851Z,16.67
2023-01-26T09:15:42.810Z,36.43
2023-01-26T09:18:11.365Z,21.17
2023-01-26T09:20:39.107Z,37.43
2023-01-26T09:23:06.404Z,18.20
2023-01-26T09:25:37.336Z,18.63
2023-01-26T09:28:06.715Z,18.30
2023-01-26T09:30:34.087Z,17.03
2023-01-26T09:33:02.963Z,15.63
2023-01-26T09:35:30.808Z,13.93
2023-01-26T09:38:01.167Z,13.87
2023-01-26T09:40:41.932Z,14.27
2023-01-26T09:43:24.794Z,12.10
2023-01-26T09:46:17.433Z,14.33
2023-01-26T09:48:56.770Z,12.00
2023-01-26T09:51:32.350Z,13.43
2023-01-26T09:54:15.881Z,11.90
2023-01-26T09:56:43.222Z,12.77
2023-01-26T09:59:35.216Z,12.33
2023-01-26T10:02:40.326Z,12.43
2023-01-26T10:05:19.657Z,10.63
2023-01-26T10:07:46.704Z,9.83
2023-01-26T10:10:20.324Z,11.47
2023-01-26T10:12:51.515Z,11.47
2023-01-26T10:15:21.139Z,10.47
2023-01-26T10:17:50.251Z,11.43
2023-01-26T10:20:36.408Z,11.13
2023-01-26T10:23:17.071Z,10.67
2023-01-26T10:25:48.485Z,11.10
2023-01-26T10:28:25.704Z,10.73
2023-01-26T10:30:55.037Z,10.23
2023-01-26T10:33:32.731Z,10.57
2023-01-26T10:36:00.923Z,10.00
2023-01-26T10:38:33.650Z,10.50
2023-01-26T10:41:02.437Z,10.27
2023-01-26T10:43:34.263Z,11.17
2023-01-26T10:46:03.953Z,11.70
2023-01-26T10:48:31.072Z,10.93
2023-01-26T10:51:15.582Z,10.37
2023-01-26T10:53:42.545Z,9.47
2023-01-26T10:56:16.233Z,11.33
2023-01-26T10:59:03.155Z,10.27
2023-01-26T11:01:52.393Z,10.27
2023-01-26T11:04:19.933Z,10.63
2023-01-26T11:06:47.122Z,10.60
2023-01-26T11:09:29.612Z,10.33
2023-01-26T11:12:00.576Z,11.13
2023-01-26T11:14:31.471Z,10.77
2023-01-26T11:17:18.229Z,10.17
2023-01-26T11:19:57.227Z,8.20
2023-01-26T11:22:48.300Z,8.37
2023-01-26T11:25:26.015Z,8.77
2023-01-26T11:28:17.375Z,8.53
2023-01-26T11:30:53.010Z,9.60
2023-01-26T11:33:33.006Z,9.70
2023-01-26T11:36:03.200Z,8.33
2023-01-26T11:38:38.239Z,7.90
2023-01-26T11:41:28.549Z,8.13
2023-01-26T11:44:16.933Z,8.13
2023-01-26T11:47:13.621Z,7.77
2023-01-26T11:49:59.439Z,6.70
2023-01-26T11:52:48.598Z,6.20
2023-01-26T11:55:49.935Z,6.20
2023-01-26T11:58:35.695Z,6.30
2023-01-26T12:01:14.596Z,6.90
2023-01-26T12:03:50.578Z,6.10
2023-01-26T12:06:39.583Z,17.80
2023-01-26T12:09:24.553Z,15.00
2023-01-26T12:12:08.786Z,14.23
2023-01-26T12:14:51.339Z,8.43
2023-01-26T12:17:56.106Z,7.93
2023-01-26T12:20:51.034Z,8.23
2023-01-26T12:23:25.388Z,9.80
2023-01-26T12:26:07.790Z,8.87
2023-01-26T12:28:49.317Z,7.93
2023-01-26T12:31:34.007Z,8.13
2023-01-26T12:34:01.113Z,8.17
2023-01-26T12:36:57.542Z,8.00
2023-01-26T12:39:36.974Z,7.87
2023-01-26T12:42:34.493Z,10.03
2023-01-26T12:45:02.284Z,7.73
2023-01-26T12:47:32.514Z,7.33
2023-01-26T12:50:26.891Z,8.20
2023-01-26T12:53:13.266Z,11.43
2023-01-26T12:55:47.770Z,9.67
2023-01-26T12:58:20.653Z,8.50
2023-01-26T13:01:04.227Z,7.90
2023-01-26T13:03:35.378Z,7.83
2023-01-26T13:06:19.523Z,6.93
2023-01-26T13:09:00.497Z,7.20
2023-01-26T13:11:47.141Z,7.57
2023-01-26T13:14:29.274Z,7.10
2023-01-26T13:17:06.087Z,8.13
2023-01-26T13:19:42.125Z,7.63
2023-01-26T13:22:20.461Z,8.27
2023-01-26T13:24:57.351Z,8.47
2023-01-26T13:27:39.179Z,8.50
2023-01-26T13:30:26.999Z,8.47
2023-01-26T13:33:09.262Z,9.40
2023-01-26T13:35:37.170Z,11.13
2023-01-26T13:38:38.840Z,10.63
2023-01-26T13:41:20.700Z,9.90
2023-01-26T13:43:57.233Z,9.53
2023-01-26T13:46:40.644Z,9.30
2023-01-26T13:49:23.931Z,9.67
2023-01-26T13:51:51.045Z,10.97
2023-01-26T13:54:19.249Z,10.47
2023-01-26T13:57:04.736Z,11.53
2023-01-26T13:59:39.010Z,11.07
2023-01-26T14:02:11.844Z,10.10
2023-01-26T14:04:51.282Z,10.60
2023-01-26T14:07:22.516Z,10.30
2023-01-26T14:09:54.813Z,10.67
2023-01-26T14:12:28.407Z,14.90
2023-01-26T14:14:59.039Z,11.43
2023-01-26T14:17:49.887Z,12.07
2023-01-26T14:20:35.498Z,12.43
2023-01-26T14:23:14.249Z,10.57
2023-01-26T14:26:05.657Z,12.60
2023-01-26T14:28:35.974Z,11.77
2023-01-26T14:31:15.587Z,11.10
2023-01-26T14:33:42.671Z,12.10
2023-01-26T14:36:16.514Z,12.60
2023-01-26T14:38:46.202Z,13.13
2023-01-26T14:41:37.689Z,12.57
2023-01-26T14:44:06.101Z,12.83
2023-01-26T14:47:25.662Z,13.53
2023-01-26T14:50:03.092Z,14.23
2023-01-26T14:52:39.320Z,15.07
2023-01-26T14:55:14.584Z,14.73
2023-01-26T14:57:41.636Z,14.87
2023-01-26T15:00:46.282Z,14.23
2023-01-26T15:03:24.285Z,15.17
2023-01-26T15:06:06.899Z,15.77
2023-01-26T15:08:36.205Z,16.47
2023-01-26T15:11:22.519Z,17.87
2023-01-26T15:13:54.070Z,17.53
2023-01-26T15:16:25.092Z,17.03
2023-01-26T15:19:04.740Z,17.10
2023-01-26T15:21:34.280Z,19.93
2023-01-26T15:24:01.450Z,21.47
2023-01-26T15:26:29.804Z,20.87
2023-01-26T15:28:59.910Z,18.40
2023-01-26T15:31:41.804Z,22.53
2023-01-26T15:34:32.558Z,19.67
2023-01-26T15:37:00.456Z,19.23
2023-01-26T15:39:27.966Z,18.20
2023-01-26T15:42:15.942Z,19.90
2023-01-26T15:44:42.879Z,18.23
2023-01-26T15:47:11.928Z,16.33
2023-01-26T15:49:39.644Z,19.40
2023-01-26T15:52:14.449Z,19.20
2023-01-26T15:54:41.662Z,18.50
2023-01-26T15:57:12.942Z,18.23
2023-01-26T15:59:40.294Z,18.50
2023-01-26T16:02:14.928Z,17.50
2023-01-26T16:04:42.262Z,19.60
2023-01-26T16:07:14.273Z,18.70
2023-01-26T16:09:41.973Z,20.23
2023-01-26T16:12:25.891Z,18.83
2023-01-26T16:14:57.739Z,19.47
2023-01-26T16:17:24.662Z,19.67
2023-01-26T16:19:51.645Z,17.90
2023-01-26T16:22:18.812Z,19.00
2023-01-26T16:24:46.874Z,19.53
2023-01-26T16:27:13.813Z,19.73
2023-01-26T16:29:40.830Z,19.43
2023-01-26T16:32:28.329Z,20.60
2023-01-26T16:34:55.312Z,19.00
2023-01-26T16:37:22.365Z,19.73
2023-01-26T16:39:49.277Z,18.73
2023-01-26T16:42:19.912Z,21.30
2023-01-26T16:44:47.703Z,19.13
2023-01-26T16:47:14.865Z,17.60
2023-01-26T16:49:41.821Z,18.93
2023-01-26T16:52:09.872Z,16.70
2023-01-26T16:54:36.803Z,19.40
2023-01-26T16:57:04.458Z,17.37
2023-01-26T16:59:31.358Z,16.10
2023-01-26T17:01:58.491Z,18.10
2023-01-26T17:04:25.527Z,17.73
2023-01-26T17:06:52.476Z,17.43
2023-01-26T17:09:20.909Z,16.40
2023-01-26T17:11:47.868Z,16.30
2023-01-26T17:14:17.939Z,17.33
2023-01-26T17:16:48.510Z,18.77
2023-01-26T17:19:15.486Z,16.27
2023-01-26T17:21:42.434Z,17.93
2023-01-26T17:24:09.786Z,17.00
2023-01-26T17:26:36.795Z,16.47
2023-01-26T17:29:13.246Z,16.40
2023-01-26T17:31:43.223Z,17.07
2023-01-26T17:34:10.553Z,15.57
2023-01-26T17:36:40.176Z,18.13
2023-01-26T17:39:09.744Z,15.80
2023-01-26T17:41:40.257Z,15.73
2023-01-26T17:44:08.130Z,15.73
2023-01-26T17:46:35.037Z,15.17
2023-01-26T17:49:06.192Z,13.57
2023-01-26T17:51:37.734Z,13.40
2023-01-26T17:54:04.677Z,13.63
2023-01-26T17:56:39.010Z,14.70
2023-01-26T17:59:05.997Z,15.80
2023-01-26T18:01:35.986Z,13.00
2023-01-26T18:04:03.207Z,12.43
2023-01-26T18:06:36.029Z,12.73
2023-01-26T18:09:03.024Z,11.73
2023-01-26T18:11:30.050Z,12.17
2023-01-26T18:14:01.763Z,12.60
2023-01-26T18:16:29.242Z,11.87
2023-01-26T18:18:57.356Z,10.27
2023-01-26T18:21:27.113Z,11.37
2023-01-26T18:23:59.815Z,11.60
2023-01-26T18:26:29.844Z,11.43
2023-01-26T18:28:58.608Z,10.47
2023-01-26T18:31:34.141Z,10.30
2023-01-26T18:34:02.634Z,10.47
2023-01-26T18:36:30.568Z,10.80
2023-01-26T18:38:59.980Z,10.20
2023-01-26T18:41:28.333Z,12.07
2023-01-26T18:43:57.761Z,9.53
2023-01-26T18:46:26.792Z,11.03
2023-01-26T18:48:55.240Z,9.83
2023-01-26T18:51:22.741Z,10.27
2023-01-26T18:53:49.943Z,10.10
2023-01-26T18:56:17.099Z,9.90
2023-01-26T18:58:44.550Z,9.90
2023-01-26T19:01:13.884Z,9.63
2023-01-26T19:03:42.541Z,10.50
2023-01-26T19:06:09.819Z,10.47
2023-01-26T19:08:36.965Z,9.20
2023-01-26T19:11:08.035Z,9.23
2023-01-26T19:13:35.723Z,9.73
2023-01-26T19:16:03.271Z,9.43
2023-01-26T19:18:30.257Z,8.80
2023-01-26T19:21:02.600Z,9.33
2023-01-26T19:23:29.770Z,8.20
2023-01-26T19:25:57.104Z,9.20
2023-01-26T19:28:24.376Z,9.43
2023-01-26T19:30:51.366Z,9.00
2023-01-26T19:33:24.157Z,8.43
2023-01-26T19:35:52.226Z,7.50
2023-01-26T19:38:20.143Z,8.77
2023-01-26T19:40:49.401Z,9.67
2023-01-26T19:43:19.050Z,9.13
2023-01-26T19:45:51.775Z,9.37
2023-01-26T19:48:19.675Z,9.07
2023-01-26T19:50:58.372Z,8.57
2023-01-26T19:53:26.106Z,8.30
2023-01-26T19:55:53.512Z,8.93
2023-01-26T19:58:20.457Z,8.10
2023-01-26T20:00:47.383Z,7.00
2023-01-26T20:03:14.368Z,8.03
2023-01-26T20:05:41.378Z,7.63
2023-01-26T20:08:08.279Z,7.17
2023-01-26T20:10:35.162Z,8.20
2023-01-26T20:13:02.075Z,7.73
2023-01-26T20:15:28.977Z,7.97
2023-01-26T20:17:55.894Z,7.57
2023-01-26T20:20:23.139Z,8.40
2023-01-26T20:22:50.082Z,7.20
2023-01-26T20:25:16.986Z,7.57
2023-01-26T20:27:44.441Z,6.63
2023-01-26T20:30:12.266Z,7.43
2023-01-26T20:32:39.419Z,7.10
2023-01-26T20:35:08.763Z,6.47
2023-01-26T20:37:36.313Z,6.17
2023-01-26T20:40:04.195Z,6.43
2023-01-26T20:42:31.400Z,7.80
2023-01-26T20:44:59.102Z,7.27
2023-01-26T20:47:26.079Z,6.60
2023-01-26T20:49:56.057Z,6.27
2023-01-26T20:52:25.186Z,6.00
2023-01-26T20:54:52.514Z,6.57
2023-01-26T20:57:19.464Z,6.17
2023-01-26T20:59:46.525Z,5.37
2023-01-26T21:02:15.178Z,6.43
2023-01-26T21:04:42.636Z,5.27
2023-01-26T21:07:10.168Z,5.20
2023-01-26T21:09:37.263Z,5.77
2023-01-26T21:12:04.400Z,5.53
2023-01-26T21:14:31.728Z,4.87
2023-01-26T21:16:59.090Z,5.70
2023-01-26T21:19:26.030Z,4.90
2023-01-26T21:21:53.008Z,7.33
2023-01-26T21:24:19.965Z,5.00
2023-01-26T21:26:47.886Z,4.80
2023-01-26T21:29:16.300Z,5.10
2023-01-26T21:31:45.436Z,5.40
2023-01-26T21:34:12.855Z,4.63
2023-01-26T21:36:39.842Z,5.43
2023-01-26T21:39:11.966Z,5.37
2023-01-26T21:41:57.219Z,4.97
2023-01-26T21:44:29.921Z,4.57
2023-01-26T21:47:03.606Z,5.00
2023-01-26T21:49:30.681Z,5.10
2023-01-26T21:52:17.106Z,5.13
2023-01-26T21:54:44.019Z,5.10
2023-01-26T21:57:29.694Z,4.80
2023-01-26T21:59:56.618Z,4.40
2023-01-26T22:02:23.749Z,4.57
2023-01-26T22:04:50.962Z,4.20
2023-01-26T22:07:18.081Z,3.63
2023-01-26T22:09:45.095Z,3.83
2023-01-26T22:12:12.201Z,4.20
2023-01-26T22:14:39.686Z,3.97
2023-01-26T22:17:06.734Z,4.20
2023-01-26T22:19:33.839Z,3.70
2023-01-26T22:22:00.745Z,3.70
2023-01-26T22:24:27.713Z,4.40
2023-01-26T22:26:54.743Z,3.27
2023-01-26T22:29:21.766Z,3.30
2023-01-26T22:31:50.390Z,3.67
2023-01-26T22:34:17.627Z,3.10
2023-01-26T22:36:44.621Z,3.50
2023-01-26T22:39:12.163Z,3.30
2023-01-26T22:41:40.122Z,3.20
2023-01-26T22:44:07.177Z,3.10
2023-01-26T22:46:34.975Z,3.40
2023-01-26T22:49:04.558Z,2.73
2023-01-26T22:51:33.390Z,2.60
2023-01-26T22:54:00.693Z,2.60
2023-01-26T22:56:27.803Z,2.87
2023-01-26T22:58:59.644Z,2.73
2023-01-26T23:01:30.215Z,2.77
2023-01-26T23:03:57.827Z,2.90
2023-01-26T23:06:25.665Z,2.70
2023-01-26T23:08:53.172Z,2.97
2023-01-26T23:11:23.177Z,2.90
2023-01-26T23:13:51.621Z,2.60
2023-01-26T23:16:19.231Z,2.80
2023-01-26T23:18:46.312Z,2.50
2023-01-26T23:21:13.198Z,2.73
2023-01-26T23:23:40.945Z,2.13
2023-01-26T23:26:08.776Z,2.40
2023-01-26T23:28:39.024Z,2.37
2023-01-26T23:31:06.664Z,2.67
2023-01-26T23:33:35.091Z,2.70
2023-01-26T23:36:02.532Z,2.70
2023-01-26T23:38:30.300Z,2.20
2023-01-26T23:40:57.870Z,2.27
2023-01-26T23:43:24.782Z,2.20
2023-01-26T23:45:52.339Z,2.30
2023-01-26T23:48:19.904Z,2.60
2023-01-26T23:50:47.069Z,2.30
2023-01-26T23:53:14.530Z,2.30
2023-01-26T23:55:43.133Z,2.33
2023-01-26T23:58:11.233Z,2.10
